Time;durP1;ratioP1;P1;durP2;ratioP2;P2;SDS_P1;SDS_P2;PMS_P1;PMS_P2;Temp;Humidity;BMP_temperature;BMP_pressure;BME280_temperature;BME280_humidity;BME280_pressure;Samples;Min_cycle;Max_cycle;Signal;HPM_P1;HPM_P2
2024/04/02 00:01:02;;;;;;;3.40;1.90;;;;;;;;;;6208673;23;20190;-90
2024/04/02 00:04:13;;;;;;;3.28;1.25;;;;;;;;;;6209680;23;20167;-90
2024/04/02 00:07:18;;;;;;;3.90;1.30;;;;;;;;;;6207652;23;20171;-91
2024/04/02 00:10:24;;;;;;;6.50;1.60;;;;;;;;;;6208139;23;20187;-90
2024/04/02 00:13:29;;;;;;;9.82;2.15;;;;;;;;;;6207749;23;20186;-90
2024/04/02 00:16:34;;;;;;;8.43;2.50;;;;;;;;;;6208208;23;20167;-92
2024/04/02 00:19:40;;;;;;;4.30;1.58;;;;;;;;;;6208735;23;20167;-88
2024/04/02 00:22:44;;;;;;;0.95;0.70;;;;;;;;;;6209553;23;20156;-88
2024/04/02 00:25:49;;;;;;;4.78;1.60;;;;;;;;;;6209245;23;20190;-89
2024/04/02 00:28:54;;;;;;;11.77;2.30;;;;;;;;;;6207515;23;20494;-87
2024/04/02 00:31:59;;;;;;;5.90;1.77;;;;;;;;;;6207531;23;20155;-90
2024/04/02 00:35:06;;;;;;;8.77;1.80;;;;;;;;;;6207584;23;20170;-88
2024/04/02 00:38:11;;;;;;;1.70;0.80;;;;;;;;;;6207904;23;20218;-90
2024/04/02 00:41:16;;;;;;;1.50;0.90;;;;;;;;;;6208230;23;20253;-89
2024/04/02 00:44:20;;;;;;;2.72;1.00;;;;;;;;;;6206900;23;20232;-89
2024/04/02 00:47:25;;;;;;;1.17;0.80;;;;;;;;;;6208680;23;20175;-88
2024/04/02 00:50:31;;;;;;;1.65;0.77;;;;;;;;;;6207313;23;20175;-89
2024/04/02 00:53:36;;;;;;;0.90;0.70;;;;;;;;;;6207794;23;20163;-89
2024/04/02 00:56:42;;;;;;;2.97;0.80;;;;;;;;;;6207888;23;20167;-90
2024/04/02 00:59:46;;;;;;;2.22;1.42;;;;;;;;;;6207661;23;20186;-89
2024/04/02 01:02:52;;;;;;;1.25;0.90;;;;;;;;;;6179397;23;20167;-89
2024/04/02 01:05:58;;;;;;;1.00;0.75;;;;;;;;;;6178068;23;20645;-89
2024/04/02 01:09:04;;;;;;;1.30;0.80;;;;;;;;;;6179912;23;20225;-91
2024/04/02 01:12:09;;;;;;;2.08;0.80;;;;;;;;;;6178246;23;20163;-89
2024/04/02 01:15:20;;;;;;;1.38;0.80;;;;;;;;;;6178494;23;20155;-89
2024/04/02 01:18:24;;;;;;;1.50;0.98;;;;;;;;;;6178763;23;20143;-90
2024/04/02 01:21:31;;;;;;;1.02;0.65;;;;;;;;;;6179629;23;20190;-90
2024/04/02 01:24:37;;;;;;;2.25;0.70;;;;;;;;;;6180518;23;20159;-91
2024/04/02 01:27:42;;;;;;;0.80;0.60;;;;;;;;;;6179399;23;20191;-89
2024/04/02 01:30:47;;;;;;;1.35;0.75;;;;;;;;;;6180882;23;20196;-90
2024/04/02 01:33:51;;;;;;;1.00;0.80;;;;;;;;;;6179104;23;20344;-91
2024/04/02 01:36:57;;;;;;;1.30;0.77;;;;;;;;;;6180041;23;20725;-90
2024/04/02 01:40:02;;;;;;;1.65;0.70;;;;;;;;;;6179491;23;20270;-90
2024/04/02 01:43:08;;;;;;;1.00;0.70;;;;;;;;;;6178491;23;20168;-90
2024/04/02 01:46:15;;;;;;;1.20;0.70;;;;;;;;;;6181146;23;20212;-90
2024/04/02 01:49:19;;;;;;;1.60;0.80;;;;;;;;;;6179406;23;20172;-90
2024/04/02 01:52:24;;;;;;;1.23;0.80;;;;;;;;;;6180813;23;20152;-90
2024/04/02 01:55:27;;;;;;;1.30;0.73;;;;;;;;;;6181612;23;20171;-90
2024/04/02 01:58:34;;;;;;;1.10;0.82;;;;;;;;;;6180201;23;20168;-90
2024/04/02 02:01:38;;;;;;;1.60;0.82;;;;;;;;;;6199176;23;20646;-89
2024/04/02 02:04:43;;;;;;;0.93;0.73;;;;;;;;;;6208153;23;20496;-89
2024/04/02 02:07:47;;;;;;;1.40;0.80;;;;;;;;;;6208100;23;20246;-90
2024/04/02 02:10:56;;;;;;;3.17;0.63;;;;;;;;;;6208306;23;20240;-88
2024/04/02 02:14:01;;;;;;;2.45;0.70;;;;;;;;;;6208511;23;20195;-89
2024/04/02 02:17:06;;;;;;;1.50;0.85;;;;;;;;;;6209556;23;20619;-90
2024/04/02 02:20:11;;;;;;;1.65;1.00;;;;;;;;;;6226355;23;20175;-89
2024/04/02 02:23:15;;;;;;;2.20;1.05;;;;;;;;;;6206744;23;20469;-91
2024/04/02 02:26:20;;;;;;;2.55;0.88;;;;;;;;;;6206338;23;20190;-90
2024/04/02 02:29:26;;;;;;;0.70;0.70;;;;;;;;;;6207548;23;20156;-89
2024/04/02 02:32:31;;;;;;;2.67;1.00;;;;;;;;;;6208846;23;20183;-90
2024/04/02 02:35:36;;;;;;;2.10;1.00;;;;;;;;;;6208188;23;20175;-91
2024/04/02 02:38:41;;;;;;;3.50;0.82;;;;;;;;;;6206421;23;20291;-89
2024/04/02 02:41:46;;;;;;;3.45;1.58;;;;;;;;;;6206089;23;20167;-89
2024/04/02 02:44:53;;;;;;;2.03;0.82;;;;;;;;;;6206750;23;20199;-88
2024/04/02 02:47:57;;;;;;;1.98;0.80;;;;;;;;;;6207153;23;20247;-90
2024/04/02 02:51:02;;;;;;;3.28;0.73;;;;;;;;;;6208422;23;20171;-89
2024/04/02 02:54:06;;;;;;;2.00;0.77;;;;;;;;;;6207681;23;20241;-90
2024/04/02 02:57:11;;;;;;;1.13;0.70;;;;;;;;;;6206490;23;20248;-90
2024/04/02 03:00:17;;;;;;;1.55;0.75;;;;;;;;;;6207849;23;20155;-90
2024/04/02 03:03:22;;;;;;;3.45;1.10;;;;;;;;;;6208992;23;20599;-89
2024/04/02 03:06:26;;;;;;;2.03;1.10;;;;;;;;;;6208873;23;20206;-89
2024/04/02 03:09:32;;;;;;;1.48;0.88;;;;;;;;;;6209746;23;20661;-90
2024/04/02 03:12:36;;;;;;;1.80;0.88;;;;;;;;;;6208323;23;20494;-89
2024/04/02 03:15:43;;;;;;;3.33;1.20;;;;;;;;;;6209391;23;20166;-90
2024/04/02 03:18:48;;;;;;;3.70;1.38;;;;;;;;;;6208470;23;20213;-90
2024/04/02 03:21:52;;;;;;;1.50;1.00;;;;;;;;;;6208238;23;20175;-88
2024/04/02 03:24:57;;;;;;;2.45;1.23;;;;;;;;;;6208523;23;20501;-89
2024/04/02 03:28:02;;;;;;;2.22;0.95;;;;;;;;;;6208539;23;20282;-90
2024/04/02 03:31:09;;;;;;;0.80;0.73;;;;;;;;;;6207673;23;20182;-89
2024/04/02 03:34:12;;;;;;;3.28;1.00;;;;;;;;;;6209211;23;20163;-90
2024/04/02 03:37:17;;;;;;;2.10;0.90;;;;;;;;;;6227357;23;20236;-89
2024/04/02 03:40:23;;;;;;;1.92;1.00;;;;;;;;;;6207626;23;20326;-89
2024/04/02 03:43:28;;;;;;;3.95;1.20;;;;;;;;;;6209473;23;20207;-89
2024/04/02 03:46:34;;;;;;;3.42;1.48;;;;;;;;;;6206803;23;20693;-90
2024/04/02 03:49:39;;;;;;;3.30;1.27;;;;;;;;;;6209723;23;20167;-89
2024/04/02 03:52:44;;;;;;;3.67;1.10;;;;;;;;;;6207152;23;20222;-90
2024/04/02 03:55:48;;;;;;;5.72;1.80;;;;;;;;;;6205669;23;20171;-90
2024/04/02 03:58:53;;;;;;;3.63;1.35;;;;;;;;;;6206418;23;20528;-89
2024/04/02 04:01:59;;;;;;;5.88;1.80;;;;;;;;;;6205825;23;20305;-90
2024/04/02 04:05:04;;;;;;;3.85;1.35;;;;;;;;;;6206018;23;20171;-88
2024/04/02 04:08:09;;;;;;;3.38;1.60;;;;;;;;;;6207943;23;20202;-89
2024/04/02 04:11:13;;;;;;;4.90;1.90;;;;;;;;;;6207544;23;20227;-89
2024/04/02 04:14:20;;;;;;;1.98;1.02;;;;;;;;;;6207574;23;20547;-89
2024/04/02 04:17:25;;;;;;;4.90;1.50;;;;;;;;;;6208629;23;20210;-89
2024/04/02 04:20:31;;;;;;;3.25;1.40;;;;;;;;;;6209019;23;20498;-89
2024/04/02 04:23:36;;;;;;;3.13;1.23;;;;;;;;;;6208570;23;20171;-89
2024/04/02 04:26:40;;;;;;;4.97;1.80;;;;;;;;;;6208294;23;20199;-89
2024/04/02 04:29:47;;;;;;;6.15;1.70;;;;;;;;;;6208477;23;20598;-89
2024/04/02 04:32:52;;;;;;;3.85;1.33;;;;;;;;;;6208423;23;20168;-89
2024/04/02 04:35:58;;;;;;;6.60;1.73;;;;;;;;;;6208155;23;20544;-89
2024/04/02 04:39:05;;;;;;;4.60;1.75;;;;;;;;;;6207288;23;20163;-89
2024/04/02 04:42:10;;;;;;;5.95;1.70;;;;;;;;;;6209364;23;20216;-89
2024/04/02 04:45:14;;;;;;;6.22;1.70;;;;;;;;;;6209676;23;20259;-89
2024/04/02 04:48:20;;;;;;;3.83;1.60;;;;;;;;;;6210250;23;20162;-89
2024/04/02 04:51:28;;;;;;;3.92;1.30;;;;;;;;;;6205895;23;20171;-90
2024/04/02 04:54:33;;;;;;;3.47;0.90;;;;;;;;;;6206596;23;20174;-88
2024/04/02 04:57:38;;;;;;;4.50;1.45;;;;;;;;;;6206969;23;20163;-88
2024/04/02 05:00:44;;;;;;;4.22;1.10;;;;;;;;;;6210055;23;20206;-88
2024/04/02 05:03:51;;;;;;;2.75;1.20;;;;;;;;;;6211335;23;20167;-88
2024/04/02 05:06:55;;;;;;;3.85;1.20;;;;;;;;;;6211306;23;20234;-89
2024/04/02 05:10:00;;;;;;;5.43;1.70;;;;;;;;;;6207923;23;20166;-89
2024/04/02 05:13:06;;;;;;;3.55;1.50;;;;;;;;;;6223874;23;20167;-89
2024/04/02 05:16:11;;;;;;;4.72;1.38;;;;;;;;;;6207798;23;20235;-89
2024/04/02 05:19:18;;;;;;;6.45;1.00;;;;;;;;;;6206769;23;20187;-89
2024/04/02 05:22:22;;;;;;;4.72;1.48;;;;;;;;;;6208584;23;20207;-90
2024/04/02 05:25:27;;;;;;;4.38;1.10;;;;;;;;;;6207136;23;20652;-90
2024/04/02 05:28:33;;;;;;;3.80;1.30;;;;;;;;;;6208156;23;20171;-90
2024/04/02 05:31:38;;;;;;;2.67;1.17;;;;;;;;;;6208891;23;20187;-90
2024/04/02 05:34:47;;;;;;;6.15;1.70;;;;;;;;;;6214085;23;20174;-90
2024/04/02 05:37:53;;;;;;;4.95;1.10;;;;;;;;;;6209322;23;20168;-90
2024/04/02 05:41:00;;;;;;;3.15;0.88;;;;;;;;;;6208610;23;20154;-89
2024/04/02 05:44:04;;;;;;;1.65;0.98;;;;;;;;;;6209009;23;20154;-89
2024/04/02 05:47:09;;;;;;;2.63;1.00;;;;;;;;;;6209022;23;20743;-89
2024/04/02 05:50:15;;;;;;;3.60;1.50;;;;;;;;;;6208730;23;20171;-90
2024/04/02 05:53:20;;;;;;;2.30;0.90;;;;;;;;;;6208389;23;20171;-90
2024/04/02 05:56:24;;;;;;;1.67;0.80;;;;;;;;;;6208701;23;20198;-91
2024/04/02 05:59:30;;;;;;;2.83;1.13;;;;;;;;;;6210636;23;20224;-92
2024/04/02 06:02:35;;;;;;;3.10;1.10;;;;;;;;;;6210236;23;20198;-89
2024/04/02 06:05:43;;;;;;;3.80;1.33;;;;;;;;;;6212534;23;20191;-92
2024/04/02 06:08:47;;;;;;;3.30;1.20;;;;;;;;;;6212676;23;20163;-91
2024/04/02 06:11:53;;;;;;;8.82;4.40;;;;;;;;;;6216692;23;20191;-90
2024/04/02 06:14:59;;;;;;;3.80;1.35;;;;;;;;;;6198003;23;20603;-92
2024/04/02 06:18:03;;;;;;;1.67;0.80;;;;;;;;;;6213685;23;20211;-91
2024/04/02 06:21:13;;;;;;;2.15;0.95;;;;;;;;;;6213801;23;20179;-92
2024/04/02 06:24:18;;;;;;;4.20;1.10;;;;;;;;;;6216675;23;20179;-94
2024/04/02 06:27:23;;;;;;;1.65;0.88;;;;;;;;;;6214052;23;20194;-93
2024/04/02 06:30:27;;;;;;;1.52;0.63;;;;;;;;;;6231362;23;20207;-91
2024/04/02 06:33:32;;;;;;;2.72;0.95;;;;;;;;;;6214739;23;20164;-93
2024/04/02 06:36:41;;;;;;;1.42;0.68;;;;;;;;;;6212971;23;20162;-91
2024/04/02 06:39:46;;;;;;;1.38;0.70;;;;;;;;;;6212844;23;20155;-91
2024/04/02 06:42:53;;;;;;;2.08;0.75;;;;;;;;;;6212242;23;20171;-91
2024/04/02 06:45:59;;;;;;;5.13;0.90;;;;;;;;;;6210513;23;20190;-90
2024/04/02 06:49:04;;;;;;;1.95;0.63;;;;;;;;;;6214342;23;20170;-91
2024/04/02 06:52:10;;;;;;;1.85;0.80;;;;;;;;;;6211429;23;20163;-90
2024/04/02 06:55:16;;;;;;;2.17;0.70;;;;;;;;;;6210795;23;20175;-91
2024/04/02 06:58:21;;;;;;;1.10;0.70;;;;;;;;;;6213177;23;20739;-91
2024/04/02 07:01:26;;;;;;;1.20;0.60;;;;;;;;;;6213067;23;20218;-92
2024/04/02 07:04:31;;;;;;;1.10;0.60;;;;;;;;;;6218898;23;20152;-89
2024/04/02 07:07:40;;;;;;;1.42;0.80;;;;;;;;;;6217216;23;20237;-89
2024/04/02 07:10:46;;;;;;;1.02;0.60;;;;;;;;;;6218002;23;20172;-89
2024/04/02 07:13:53;;;;;;;2.58;0.57;;;;;;;;;;6217263;23;20232;-91
2024/04/02 07:16:57;;;;;;;1.05;0.63;;;;;;;;;;6215433;23;20159;-91
2024/04/02 07:20:03;;;;;;;0.73;0.68;;;;;;;;;;6213098;23;20166;-91
2024/04/02 07:23:08;;;;;;;1.13;0.60;;;;;;;;;;6215302;23;20435;-90
2024/04/02 07:26:14;;;;;;;1.13;0.70;;;;;;;;;;6213221;23;20199;-90
2024/04/02 07:29:18;;;;;;;4.68;0.80;;;;;;;;;;6216328;23;20159;-91
2024/04/02 07:32:24;;;;;;;2.17;0.70;;;;;;;;;;6215781;23;20175;-90
2024/04/02 07:35:29;;;;;;;3.65;0.98;;;;;;;;;;6234024;23;20150;-90
2024/04/02 07:38:36;;;;;;;2.33;0.80;;;;;;;;;;6214805;23;20244;-92
2024/04/02 07:41:41;;;;;;;2.83;0.60;;;;;;;;;;6218074;23;20167;-90
2024/04/02 07:44:47;;;;;;;1.52;0.85;;;;;;;;;;6215993;23;20167;-91
2024/04/02 07:47:51;;;;;;;2.13;0.70;;;;;;;;;;6216084;23;20194;-90
2024/04/02 07:51:00;;;;;;;3.95;0.98;;;;;;;;;;6215223;23;20187;-91
2024/04/02 07:54:05;;;;;;;2.33;0.70;;;;;;;;;;6216254;23;20227;-90
2024/04/02 07:57:11;;;;;;;1.42;0.73;;;;;;;;;;6216897;23;20166;-92
2024/04/02 08:00:15;;;;;;;0.70;0.60;;;;;;;;;;6216414;23;20166;-90
2024/04/02 08:03:20;;;;;;;2.67;0.80;;;;;;;;;;6211232;23;20219;-91
2024/04/02 08:06:25;;;;;;;1.27;0.60;;;;;;;;;;6210305;23;20223;-91
2024/04/02 08:09:32;;;;;;;8.75;2.20;;;;;;;;;;6213965;23;20174;-91
2024/04/02 08:12:37;;;;;;;1.00;0.60;;;;;;;;;;6215437;23;20237;-91
2024/04/02 08:15:41;;;;;;;1.77;0.57;;;;;;;;;;6213277;23;20162;-92
2024/04/02 08:18:47;;;;;;;0.52;0.50;;;;;;;;;;6215576;23;20219;-90
2024/04/02 08:21:51;;;;;;;1.15;0.60;;;;;;;;;;6215905;23;20167;-91
2024/04/02 08:25:00;;;;;;;2.08;0.50;;;;;;;;;;6214191;23;20175;-91
2024/04/02 08:28:05;;;;;;;2.55;0.88;;;;;;;;;;6214434;23;20214;-94
2024/04/02 08:31:11;;;;;;;2.28;0.60;;;;;;;;;;6216448;23;20167;-91
2024/04/02 08:34:15;;;;;;;1.80;0.70;;;;;;;;;;6216537;23;20634;-90
2024/04/02 08:37:21;;;;;;;2.95;0.82;;;;;;;;;;6217557;23;20195;-91
2024/04/02 08:40:31;;;;;;;2.03;0.70;;;;;;;;;;6217954;23;20171;-90
2024/04/02 08:43:37;;;;;;;1.98;0.60;;;;;;;;;;6214731;23;20171;-92
2024/04/02 08:46:41;;;;;;;0.90;0.60;;;;;;;;;;6215112;23;20194;-91
2024/04/02 08:49:47;;;;;;;1.40;0.60;;;;;;;;;;6212518;23;20182;-91
2024/04/02 08:52:51;;;;;;;1.05;0.77;;;;;;;;;;6213195;23;20499;-91
2024/04/02 08:56:00;;;;;;;1.08;0.60;;;;;;;;;;6211892;23;20495;-92
2024/04/02 08:59:04;;;;;;;3.55;1.10;;;;;;;;;;6211486;23;20170;-91
2024/04/02 09:02:11;;;;;;;1.17;0.60;;;;;;;;;;6215100;23;20712;-91
2024/04/02 09:05:15;;;;;;;0.90;0.60;;;;;;;;;;6213742;23;20235;-91
2024/04/02 09:08:21;;;;;;;0.50;0.50;;;;;;;;;;6216601;23;20199;-93
2024/04/02 09:11:28;;;;;;;1.73;0.63;;;;;;;;;;6214307;23;20222;-89
2024/04/02 09:17:53;;;;;;;3.22;0.90;;;;;;;;;;6215274;23;20167;-92
2024/04/02 09:21:00;;;;;;;1.05;0.55;;;;;;;;;;6215438;23;20207;-91
2024/04/02 09:24:07;;;;;;;2.20;0.60;;;;;;;;;;6216816;23;20190;-91
2024/04/02 09:27:12;;;;;;;1.45;0.60;;;;;;;;;;6212345;23;20179;-93
2024/04/02 09:30:18;;;;;;;1.13;0.68;;;;;;;;;;6212779;23;20187;-90
2024/04/02 09:33:23;;;;;;;1.02;0.60;;;;;;;;;;6216520;23;20171;-91
2024/04/02 09:36:43;;;;;;;1.40;0.60;;;;;;;;;;6217146;23;20187;-92
2024/04/02 09:39:50;;;;;;;2.92;0.70;;;;;;;;;;6218625;23;20191;-91
2024/04/02 09:42:58;;;;;;;4.18;0.80;;;;;;;;;;6220207;23;20171;-92
2024/04/02 09:46:02;;;;;;;4.55;0.80;;;;;;;;;;6218391;23;20218;-92
2024/04/02 09:49:09;;;;;;;4.45;0.88;;;;;;;;;;6216644;23;20194;-92
2024/04/02 09:52:13;;;;;;;7.43;1.17;;;;;;;;;;6215368;23;20171;-91
2024/04/02 09:55:20;;;;;;;1.05;0.70;;;;;;;;;;6215474;23;20172;-92
2024/04/02 09:58:27;;;;;;;1.65;0.70;;;;;;;;;;6220736;23;20191;-91
2024/04/02 10:01:34;;;;;;;4.35;1.00;;;;;;;;;;6215620;23;20191;-91
2024/04/02 10:04:40;;;;;;;2.38;1.05;;;;;;;;;;6216093;23;20203;-91
2024/04/02 10:07:50;;;;;;;4.53;0.82;;;;;;;;;;6218158;23;20236;-90
2024/04/02 10:10:56;;;;;;;4.80;0.90;;;;;;;;;;6217609;23;20190;-89
2024/04/02 10:14:06;;;;;;;1.73;0.75;;;;;;;;;;6214516;23;20199;-92
2024/04/02 10:17:16;;;;;;;7.38;1.10;;;;;;;;;;6215352;23;20171;-91
2024/04/02 10:20:25;;;;;;;0.93;0.70;;;;;;;;;;6214233;23;20231;-92
2024/04/02 10:23:31;;;;;;;4.82;0.77;;;;;;;;;;6215778;23;20171;-93
2024/04/02 10:26:39;;;;;;;1.05;0.60;;;;;;;;;;6215735;23;20186;-92
2024/04/02 10:29:45;;;;;;;1.92;1.00;;;;;;;;;;6215112;23;20171;-91
2024/04/02 10:36:11;;;;;;;2.75;0.90;;;;;;;;;;6217174;23;20244;-90
2024/04/02 10:39:17;;;;;;;3.35;0.85;;;;;;;;;;6215206;23;20630;-94
2024/04/02 10:42:22;;;;;;;2.03;0.68;;;;;;;;;;6215762;23;20220;-93
2024/04/02 10:45:30;;;;;;;1.05;0.70;;;;;;;;;;6216907;23;20167;-91
2024/04/02 10:48:34;;;;;;;3.75;1.00;;;;;;;;;;6216297;23;20202;-91
2024/04/02 10:51:38;;;;;;;1.33;0.75;;;;;;;;;;6216183;23;20211;-91
2024/04/02 10:54:44;;;;;;;1.77;0.82;;;;;;;;;;6215758;23;20166;-92
2024/04/02 10:57:48;;;;;;;0.45;0.45;;;;;;;;;;6216705;23;20167;-91
2024/04/02 11:00:55;;;;;;;7.70;1.00;;;;;;;;;;6217866;23;20190;-91
2024/04/02 11:04:02;;;;;;;2.15;0.80;;;;;;;;;;6218461;23;20172;-92
2024/04/02 11:07:11;;;;;;;1.45;0.70;;;;;;;;;;6217327;23;20244;-93
2024/04/02 11:10:16;;;;;;;2.10;0.60;;;;;;;;;;6214203;23;20151;-93
2024/04/02 11:13:28;;;;;;;3.03;0.80;;;;;;;;;;6211856;23;20493;-91
2024/04/02 11:16:40;;;;;;;5.40;0.63;;;;;;;;;;6210532;23;20243;-89
2024/04/02 11:19:45;;;;;;;1.90;0.60;;;;;;;;;;6212707;23;20187;-93
2024/04/02 11:26:15;;;;;;;1.50;0.52;;;;;;;;;;6215618;23;20207;-93
2024/04/02 11:29:23;;;;;;;1.92;0.60;;;;;;;;;;6216044;23;20175;-92
2024/04/02 11:32:30;;;;;;;0.60;0.50;;;;;;;;;;6213514;23;20212;-92
2024/04/02 11:35:36;;;;;;;1.23;0.60;;;;;;;;;;6229646;23;20166;-93
2024/04/02 11:38:40;;;;;;;2.22;0.70;;;;;;;;;;6211405;23;20174;-93
2024/04/02 11:41:45;;;;;;;0.85;0.50;;;;;;;;;;6210356;23;20174;-92
2024/04/02 11:44:51;;;;;;;1.08;0.60;;;;;;;;;;6211650;23;20171;-92
2024/04/02 11:47:58;;;;;;;0.30;0.30;;;;;;;;;;6213197;23;20191;-93
2024/04/02 11:51:04;;;;;;;2.83;0.50;;;;;;;;;;6211792;23;20171;-92
2024/04/02 11:54:08;;;;;;;1.30;0.55;;;;;;;;;;6214211;23;20151;-93
2024/04/02 12:00:37;;;;;;;1.33;0.68;;;;;;;;;;6212322;23;20223;-91
2024/04/02 12:03:45;;;;;;;0.63;0.50;;;;;;;;;;6209882;23;20155;-90
2024/04/02 12:06:50;;;;;;;0.77;0.50;;;;;;;;;;6213822;23;20210;-94
2024/04/02 12:09:59;;;;;;;0.82;0.50;;;;;;;;;;6215960;23;20170;-92
2024/04/02 12:13:05;;;;;;;0.40;0.40;;;;;;;;;;6219803;23;20180;-92
2024/04/02 12:16:10;;;;;;;0.90;0.60;;;;;;;;;;6211717;23;20222;-94
2024/04/02 12:19:16;;;;;;;0.65;0.50;;;;;;;;;;6210658;23;20146;-92
2024/04/02 12:22:22;;;;;;;1.30;0.50;;;;;;;;;;6213363;23;20266;-92
2024/04/02 12:25:27;;;;;;;5.43;0.63;;;;;;;;;;6214050;23;20163;-93
2024/04/02 12:28:33;;;;;;;7.78;0.90;;;;;;;;;;6211503;23;20217;-92
2024/04/02 12:31:38;;;;;;;7.85;1.25;;;;;;;;;;6211981;23;20199;-91
2024/04/02 12:34:46;;;;;;;6.05;0.90;;;;;;;;;;6213292;23;20163;-92
2024/04/02 12:37:56;;;;;;;3.03;0.80;;;;;;;;;;6217564;23;20244;-95
2024/04/02 12:41:01;;;;;;;5.45;1.00;;;;;;;;;;6213440;23;20661;-93
2024/04/02 12:44:07;;;;;;;5.72;1.23;;;;;;;;;;6212771;23;20167;-93
2024/04/02 12:47:13;;;;;;;4.03;0.80;;;;;;;;;;6211771;23;20215;-93
2024/04/02 12:50:22;;;;;;;1.80;0.77;;;;;;;;;;6212196;23;20214;-92
2024/04/02 12:53:28;;;;;;;1.02;0.60;;;;;;;;;;6213649;23;20214;-93
2024/04/02 12:56:33;;;;;;;3.35;0.93;;;;;;;;;;6210566;23;20166;-92
2024/04/02 12:59:39;;;;;;;5.38;1.20;;;;;;;;;;6211825;23;20178;-93
2024/04/02 13:02:47;;;;;;;2.22;1.33;;;;;;;;;;6229441;23;20172;-92
2024/04/02 13:05:55;;;;;;;1.08;0.88;;;;;;;;;;6214108;23;20235;-91
2024/04/02 13:09:01;;;;;;;2.08;0.95;;;;;;;;;;6211420;23;20195;-92
2024/04/02 13:12:05;;;;;;;3.08;1.17;;;;;;;;;;6195419;23;20244;-92
2024/04/02 13:15:10;;;;;;;2.35;1.02;;;;;;;;;;6212903;23;20171;-94
2024/04/02 13:18:16;;;;;;;3.75;1.20;;;;;;;;;;6213311;23;20146;-93
2024/04/02 13:21:23;;;;;;;3.20;0.90;;;;;;;;;;6209753;23;20167;-93
2024/04/02 13:24:28;;;;;;;4.25;0.80;;;;;;;;;;6213592;23;20211;-93
2024/04/02 13:27:32;;;;;;;1.60;0.60;;;;;;;;;;6214762;23;20194;-92
2024/04/02 13:30:38;;;;;;;1.02;0.60;;;;;;;;;;6212066;23;20163;-93
2024/04/02 13:33:43;;;;;;;2.17;0.68;;;;;;;;;;6213316;23;20170;-92
2024/04/02 13:36:50;;;;;;;2.67;0.85;;;;;;;;;;6216803;23;20193;-92
2024/04/02 13:39:54;;;;;;;2.42;1.35;;;;;;;;;;6213595;23;20152;-92
2024/04/02 13:42:59;;;;;;;1.95;0.73;;;;;;;;;;6217600;23;20163;-94
2024/04/02 13:46:04;;;;;;;1.42;0.75;;;;;;;;;;6215286;23;20159;-95
2024/04/02 13:49:10;;;;;;;1.55;0.75;;;;;;;;;;6212384;23;20286;-94
2024/04/02 13:52:16;;;;;;;1.33;0.60;;;;;;;;;;6212781;23;20151;-93
2024/04/02 13:55:22;;;;;;;3.08;1.30;;;;;;;;;;6212755;23;20215;-93
2024/04/02 13:58:26;;;;;;;1.45;0.70;;;;;;;;;;6214229;23;20150;-93
2024/04/02 14:01:32;;;;;;;4.72;0.80;;;;;;;;;;6214521;23;20207;-95
2024/04/02 14:04:41;;;;;;;2.63;0.95;;;;;;;;;;6213881;23;20163;-95
2024/04/02 14:07:53;;;;;;;1.98;0.82;;;;;;;;;;6213736;23;20175;-93
2024/04/02 14:10:57;;;;;;;1.52;0.63;;;;;;;;;;6214858;23;20231;-93
2024/04/02 14:14:04;;;;;;;3.60;0.65;;;;;;;;;;6214472;23;20154;-93
2024/04/02 14:17:09;;;;;;;1.95;0.50;;;;;;;;;;6215048;23;20606;-94
2024/04/02 14:20:14;;;;;;;1.52;0.70;;;;;;;;;;6212797;23;20600;-93
2024/04/02 14:23:20;;;;;;;3.97;1.10;;;;;;;;;;6213757;23;20162;-92
2024/04/02 14:26:26;;;;;;;2.25;0.82;;;;;;;;;;6211373;23;20171;-94
2024/04/02 14:29:32;;;;;;;3.03;0.88;;;;;;;;;;6214373;23;20171;-92
2024/04/02 14:32:37;;;;;;;1.40;0.60;;;;;;;;;;6213495;23;20171;-92
2024/04/02 14:35:48;;;;;;;2.90;1.10;;;;;;;;;;6215403;23;20162;-92
2024/04/02 14:38:57;;;;;;;3.10;0.88;;;;;;;;;;6213136;23;20261;-90
2024/04/02 14:42:01;;;;;;;1.60;0.82;;;;;;;;;;6212406;23;20206;-92
2024/04/02 14:45:07;;;;;;;1.60;0.73;;;;;;;;;;6213986;23;20162;-93
2024/04/02 14:48:12;;;;;;;1.88;1.00;;;;;;;;;;6213759;23;20167;-93
2024/04/02 14:51:17;;;;;;;2.80;0.77;;;;;;;;;;6215184;23;20167;-92
2024/04/02 14:57:43;;;;;;;1.95;0.73;;;;;;;;;;6231369;23;20247;-92
2024/04/02 15:00:48;;;;;;;2.22;0.73;;;;;;;;;;6212467;23;20187;-92
2024/04/02 15:03:53;;;;;;;3.88;0.90;;;;;;;;;;6210627;23;20282;-93
2024/04/02 15:06:59;;;;;;;2.92;0.73;;;;;;;;;;6214008;23;20476;-93
2024/04/02 15:13:25;;;;;;;6.80;0.85;;;;;;;;;;6214644;23;20194;-95
2024/04/02 15:16:29;;;;;;;2.65;0.70;;;;;;;;;;6214148;23;20155;-92
2024/04/02 15:19:35;;;;;;;2.63;0.70;;;;;;;;;;6212720;23;20307;-93
2024/04/02 15:22:39;;;;;;;1.83;0.70;;;;;;;;;;6215315;23;20162;-93
2024/04/02 15:25:52;;;;;;;1.77;0.70;;;;;;;;;;6212896;23;20151;-93
2024/04/02 15:28:58;;;;;;;5.72;1.17;;;;;;;;;;6213325;23;20175;-91
2024/04/02 15:32:02;;;;;;;6.20;0.63;;;;;;;;;;6232438;23;20247;-92
2024/04/02 15:35:07;;;;;;;1.85;0.63;;;;;;;;;;6215140;23;20403;-93
2024/04/02 15:38:13;;;;;;;1.75;0.70;;;;;;;;;;6210767;23;20195;-92
2024/04/02 15:41:19;;;;;;;2.22;0.57;;;;;;;;;;6210398;23;20167;-91
2024/04/02 15:44:26;;;;;;;2.13;0.70;;;;;;;;;;6210257;23;20183;-92
2024/04/02 15:47:30;;;;;;;1.13;0.60;;;;;;;;;;6212585;23;20175;-92
2024/04/02 15:50:35;;;;;;;2.17;0.82;;;;;;;;;;6219787;23;20151;-93
2024/04/02 15:53:39;;;;;;;1.60;0.68;;;;;;;;;;6214223;23;20166;-94
2024/04/02 15:56:56;;;;;;;3.25;0.60;;;;;;;;;;6209970;23;20210;-95
2024/04/02 16:00:00;;;;;;;0.73;0.60;;;;;;;;;;6209585;23;20172;-95
2024/04/02 16:03:05;;;;;;;1.75;0.80;;;;;;;;;;6212023;23;20167;-93
2024/04/02 16:06:10;;;;;;;1.65;0.57;;;;;;;;;;6211143;23;20498;-94
2024/04/02 16:09:20;;;;;;;2.10;0.63;;;;;;;;;;6212223;23;20191;-95
2024/04/02 16:12:25;;;;;;;2.95;1.10;;;;;;;;;;6211304;23;20238;-92
2024/04/02 16:15:30;;;;;;;4.68;1.40;;;;;;;;;;6210694;23;20167;-93
2024/04/02 16:18:35;;;;;;;3.25;1.05;;;;;;;;;;6211488;23;20223;-91
2024/04/02 16:21:44;;;;;;;2.92;0.95;;;;;;;;;;6209996;23;20702;-92
2024/04/02 16:24:49;;;;;;;4.15;1.08;;;;;;;;;;6211070;23;20206;-92
2024/04/02 16:27:55;;;;;;;2.10;0.68;;;;;;;;;;6210531;23;20175;-90
2024/04/02 16:31:01;;;;;;;3.05;0.80;;;;;;;;;;6211497;23;20162;-91
2024/04/02 16:34:09;;;;;;;2.03;0.75;;;;;;;;;;6217062;23;20167;-91
2024/04/02 16:37:14;;;;;;;4.18;0.80;;;;;;;;;;6234973;23;20155;-93
2024/04/02 16:40:19;;;;;;;1.88;0.90;;;;;;;;;;6234442;23;20151;-93
2024/04/02 16:43:27;;;;;;;1.80;0.70;;;;;;;;;;6211974;23;20166;-94
2024/04/02 16:46:31;;;;;;;1.73;0.90;;;;;;;;;;6226852;23;20166;-92
2024/04/02 16:49:36;;;;;;;2.03;0.98;;;;;;;;;;6206279;23;20163;-87
2024/04/02 16:52:41;;;;;;;1.42;0.70;;;;;;;;;;6205781;23;20217;-92
2024/04/02 16:55:47;;;;;;;1.40;0.70;;;;;;;;;;6211181;23;20286;-92
2024/04/02 16:58:53;;;;;;;6.05;1.40;;;;;;;;;;6210603;23;20191;-92
2024/04/02 17:01:59;;;;;;;3.08;1.20;;;;;;;;;;6211098;23;20190;-92
2024/04/02 17:05:03;;;;;;;4.43;1.20;;;;;;;;;;6208438;23;20175;-92
2024/04/02 17:08:09;;;;;;;2.75;1.30;;;;;;;;;;6209804;23;20198;-92
2024/04/02 17:11:13;;;;;;;2.15;0.80;;;;;;;;;;6208310;23;20626;-91
2024/04/02 17:14:20;;;;;;;5.20;1.15;;;;;;;;;;6209237;23;20171;-93
2024/04/02 17:17:26;;;;;;;3.05;1.23;;;;;;;;;;6210672;23;20283;-91
2024/04/02 17:20:31;;;;;;;3.00;0.88;;;;;;;;;;6207611;23;20170;-92
2024/04/02 17:23:37;;;;;;;2.00;1.00;;;;;;;;;;6208169;23;20190;-91
2024/04/02 17:26:45;;;;;;;1.95;0.80;;;;;;;;;;6208354;23;20210;-90
2024/04/02 17:29:52;;;;;;;5.30;1.70;;;;;;;;;;6209975;23;20235;-90
2024/04/02 17:32:56;;;;;;;4.70;1.20;;;;;;;;;;6207689;23;20167;-90
2024/04/02 17:36:03;;;;;;;5.45;1.75;;;;;;;;;;6207920;23;20167;-91
2024/04/02 17:39:07;;;;;;;7.72;1.70;;;;;;;;;;6209133;23;20203;-91
2024/04/02 17:42:12;;;;;;;5.93;1.80;;;;;;;;;;6210461;23;20229;-89
2024/04/02 17:45:19;;;;;;;10.55;3.08;;;;;;;;;;6209061;23;20234;-93
2024/04/02 17:48:22;;;;;;;3.33;1.20;;;;;;;;;;6208493;23;20634;-92
2024/04/02 17:51:29;;;;;;;4.35;1.30;;;;;;;;;;6227193;23;20186;-91
2024/04/02 17:54:34;;;;;;;4.65;1.35;;;;;;;;;;6208146;23;20415;-92
2024/04/02 17:57:39;;;;;;;4.95;1.17;;;;;;;;;;6209146;23;20194;-91
2024/04/02 18:00:45;;;;;;;3.55;1.10;;;;;;;;;;6208594;23;20650;-91
2024/04/02 18:03:54;;;;;;;2.47;1.17;;;;;;;;;;6213015;23;20246;-89
2024/04/02 18:06:59;;;;;;;3.53;1.20;;;;;;;;;;6211455;23;20179;-90
2024/04/02 18:10:04;;;;;;;4.70;1.55;;;;;;;;;;6210500;23;20279;-90
2024/04/02 18:13:10;;;;;;;4.72;1.42;;;;;;;;;;6210074;23;20172;-92
2024/04/02 18:16:17;;;;;;;5.63;1.27;;;;;;;;;;6209746;23;20159;-93
2024/04/02 18:19:21;;;;;;;5.20;1.38;;;;;;;;;;6208237;23;20248;-90
2024/04/02 18:22:28;;;;;;;7.07;2.50;;;;;;;;;;6208475;23;20656;-90
2024/04/02 18:25:32;;;;;;;6.40;1.70;;;;;;;;;;6208028;23;20499;-89
2024/04/02 18:28:38;;;;;;;2.90;1.40;;;;;;;;;;6208622;23;20206;-90
2024/04/02 18:31:45;;;;;;;8.82;1.90;;;;;;;;;;6209504;23;20163;-91
2024/04/02 18:34:50;;;;;;;7.30;1.85;;;;;;;;;;6209188;23;20155;-89
2024/04/02 18:37:55;;;;;;;5.07;1.60;;;;;;;;;;6207327;23;20653;-92
2024/04/02 18:41:03;;;;;;;4.72;1.80;;;;;;;;;;6209697;23;20274;-90
2024/04/02 18:44:08;;;;;;;3.53;1.45;;;;;;;;;;6211430;23;20171;-90
2024/04/02 18:47:14;;;;;;;5.78;1.50;;;;;;;;;;6209308;23;20493;-89
2024/04/02 18:50:18;;;;;;;7.20;1.25;;;;;;;;;;6209698;23;20224;-90
2024/04/02 18:53:24;;;;;;;2.78;1.00;;;;;;;;;;6209822;23;20199;-91